sensor_id;sensor_type;location;lat;lon;timestamp;pressure;altitude;pressure_sealevel;temperature;humidity
54554;BME280;40450;55.848;-3.572;2023-02-21T00:02:25;99269.20;;;9.83;94.90
54554;BME280;40450;55.848;-3.572;2023-02-21T00:04:56;99268.38;;;8.85;97.03
54554;BME280;40450;55.848;-3.572;2023-02-21T00:07:26;99272.87;;;9.34;96.30
54554;BME280;40450;55.848;-3.572;2023-02-21T00:09:56;99273.14;;;8.60;97.87
54554;BME280;40450;55.848;-3.572;2023-02-21T00:12:27;99275.09;;;8.99;97.17
54554;BME280;40450;55.848;-3.572;2023-02-21T00:14:57;99270.53;;;8.88;97.47
54554;BME280;40450;55.848;-3.572;2023-02-21T00:17:27;99279.06;;;8.23;98.69
54554;BME280;40450;55.848;-3.572;2023-02-21T00:19:58;99279.56;;;8.10;99.16
54554;BME280;40450;55.848;-3.572;2023-02-21T00:22:28;99274.09;;;8.88;97.65
54554;BME280;40450;55.848;-3.572;2023-02-21T00:24:58;99272.56;;;9.21;97.41
54554;BME280;40450;55.848;-3.572;2023-02-21T00:27:29;99272.48;;;9.29;97.55
54554;BME280;40450;55.848;-3.572;2023-02-21T00:29:59;99271.14;;;9.21;97.12
54554;BME280;40450;55.848;-3.572;2023-02-21T00:32:29;99273.96;;;8.55;98.34
54554;BME280;40450;55.848;-3.572;2023-02-21T00:35:00;99271.80;;;9.06;97.81
54554;BME280;40450;55.848;-3.572;2023-02-21T00:37:30;99271.63;;;9.33;97.14
54554;BME280;40450;55.848;-3.572;2023-02-21T00:40:00;99269.69;;;8.83;97.98
54554;BME280;40450;55.848;-3.572;2023-02-21T00:42:31;99267.33;;;9.12;97.47
54554;BME280;40450;55.848;-3.572;2023-02-21T00:45:01;99271.97;;;7.90;99.60
54554;BME280;40450;55.848;-3.572;2023-02-21T00:47:31;99263.86;;;8.34;99.26
54554;BME280;40450;55.848;-3.572;2023-02-21T00:50:02;99259.74;;;8.60;98.69
54554;BME280;40450;55.848;-3.572;2023-02-21T00:52:32;99259.39;;;9.28;97.32
54554;BME280;40450;55.848;-3.572;2023-02-21T00:55:03;99259.94;;;9.21;97.05
54554;BME280;40450;55.848;-3.572;2023-02-21T00:57:33;99258.15;;;8.60;98.43
54554;BME280;40450;55.848;-3.572;2023-02-21T01:00:04;99262.23;;;7.75;99.82
54554;BME280;40450;55.848;-3.572;2023-02-21T01:02:33;99254.81;;;8.51;98.69
54554;BME280;40450;55.848;-3.572;2023-02-21T01:05:04;99258.49;;;7.92;99.77
54554;BME280;40450;55.848;-3.572;2023-02-21T01:07:34;99252.36;;;8.43;98.70
54554;BME280;40450;55.848;-3.572;2023-02-21T01:10:05;99251.33;;;8.63;98.75
54554;BME280;40450;55.848;-3.572;2023-02-21T01:12:35;99248.89;;;8.37;98.83
54554;BME280;40450;55.848;-3.572;2023-02-21T01:15:06;99245.34;;;8.30;99.15
54554;BME280;40450;55.848;-3.572;2023-02-21T01:17:35;99248.83;;;8.53;98.63
54554;BME280;40450;55.848;-3.572;2023-02-21T01:20:06;99250.18;;;8.85;98.04
54554;BME280;40450;55.848;-3.572;2023-02-21T01:22:36;99249.80;;;8.90;97.88
54554;BME280;40450;55.848;-3.572;2023-02-21T01:25:07;99247.37;;;8.19;99.22
54554;BME280;40450;55.848;-3.572;2023-02-21T01:27:37;99250.84;;;7.80;99.61
54554;BME280;40450;55.848;-3.572;2023-02-21T01:30:08;99249.05;;;7.94;99.76
54554;BME280;40450;55.848;-3.572;2023-02-21T01:32:37;99244.48;;;7.96;99.89
54554;BME280;40450;55.848;-3.572;2023-02-21T01:35:08;99238.68;;;7.84;100.00
54554;BME280;40450;55.848;-3.572;2023-02-21T01:37:39;99241.52;;;8.48;99.53
54554;BME280;40450;55.848;-3.572;2023-02-21T01:40:12;99239.16;;;7.76;99.75
54554;BME280;40450;55.848;-3.572;2023-02-21T01:42:39;99236.64;;;7.87;100.00
54554;BME280;40450;55.848;-3.572;2023-02-21T01:47:40;99239.23;;;7.75;100.00
54554;BME280;40450;55.848;-3.572;2023-02-21T01:50:15;99245.66;;;7.80;99.98
54554;BME280;40450;55.848;-3.572;2023-02-21T01:52:40;99240.24;;;7.79;100.00
54554;BME280;40450;55.848;-3.572;2023-02-21T01:55:12;99240.43;;;8.53;98.84
54554;BME280;40450;55.848;-3.572;2023-02-21T01:57:42;99235.30;;;8.33;99.21
54554;BME280;40450;55.848;-3.572;2023-02-21T02:00:13;99237.36;;;8.49;99.13
54554;BME280;40450;55.848;-3.572;2023-02-21T02:02:59;99239.15;;;9.18;98.03
54554;BME280;40450;55.848;-3.572;2023-02-21T02:05:12;99239.42;;;9.30;96.89
54554;BME280;40450;55.848;-3.572;2023-02-21T02:07:42;99240.01;;;9.57;96.37
54554;BME280;40450;55.848;-3.572;2023-02-21T02:10:13;99241.84;;;8.99;97.61
54554;BME280;40450;55.848;-3.572;2023-02-21T02:12:52;99241.38;;;9.26;96.88
54554;BME280;40450;55.848;-3.572;2023-02-21T02:15:22;99243.63;;;9.71;96.36
54554;BME280;40450;55.848;-3.572;2023-02-21T02:17:56;99243.85;;;9.32;96.91
54554;BME280;40450;55.848;-3.572;2023-02-21T02:22:56;99245.12;;;9.04;97.04
54554;BME280;40450;55.848;-3.572;2023-02-21T02:25:25;99242.87;;;9.18;97.07
54554;BME280;40450;55.848;-3.572;2023-02-21T02:27:52;99239.86;;;8.44;98.55
54554;BME280;40450;55.848;-3.572;2023-02-21T02:35:20;99238.54;;;8.84;97.75
54554;BME280;40450;55.848;-3.572;2023-02-21T02:37:53;99237.11;;;8.70;97.95
54554;BME280;40450;55.848;-3.572;2023-02-21T02:40:21;99237.33;;;8.58;98.57
54554;BME280;40450;55.848;-3.572;2023-02-21T02:42:54;99241.58;;;8.51;98.56
54554;BME280;40450;55.848;-3.572;2023-02-21T02:45:24;99241.15;;;8.95;97.73
54554;BME280;40450;55.848;-3.572;2023-02-21T02:47:51;99237.74;;;8.64;97.93
54554;BME280;40450;55.848;-3.572;2023-02-21T02:50:19;99237.59;;;8.70;98.11
54554;BME280;40450;55.848;-3.572;2023-02-21T02:52:50;99229.27;;;8.38;98.39
54554;BME280;40450;55.848;-3.572;2023-02-21T02:55:27;99237.18;;;8.61;98.00
54554;BME280;40450;55.848;-3.572;2023-02-21T02:57:50;99241.70;;;7.77;99.64
54554;BME280;40450;55.848;-3.572;2023-02-21T03:00:20;99242.63;;;7.17;100.00
54554;BME280;40450;55.848;-3.572;2023-02-21T03:03:02;99242.10;;;7.00;100.00
54554;BME280;40450;55.848;-3.572;2023-02-21T03:05:32;99238.26;;;6.76;100.00
54554;BME280;40450;55.848;-3.572;2023-02-21T03:07:57;99238.61;;;6.78;100.00
54554;BME280;40450;55.848;-3.572;2023-02-21T03:10:29;99236.26;;;7.38;100.00
54554;BME280;40450;55.848;-3.572;2023-02-21T03:12:58;99235.85;;;7.80;99.65
54554;BME280;40450;55.848;-3.572;2023-02-21T03:15:26;99232.98;;;8.32;99.15
54554;BME280;40450;55.848;-3.572;2023-02-21T03:17:55;99231.86;;;8.14;98.95
54554;BME280;40450;55.848;-3.572;2023-02-21T03:20:23;99232.46;;;7.87;99.21
54554;BME280;40450;55.848;-3.572;2023-02-21T03:22:54;99234.51;;;7.79;99.35
54554;BME280;40450;55.848;-3.572;2023-02-21T03:25:24;99237.41;;;7.70;99.43
54554;BME280;40450;55.848;-3.572;2023-02-21T03:27:54;99239.46;;;7.31;100.00
54554;BME280;40450;55.848;-3.572;2023-02-21T03:30:25;99242.56;;;7.52;99.67
54554;BME280;40450;55.848;-3.572;2023-02-21T03:32:55;99238.63;;;7.69;99.61
54554;BME280;40450;55.848;-3.572;2023-02-21T03:35:28;99229.93;;;8.18;98.64
54554;BME280;40450;55.848;-3.572;2023-02-21T03:37:57;99225.15;;;8.65;97.90
54554;BME280;40450;55.848;-3.572;2023-02-21T03:40:29;99227.33;;;8.02;98.46
54554;BME280;40450;55.848;-3.572;2023-02-21T03:42:58;99227.55;;;8.28;98.16
54554;BME280;40450;55.848;-3.572;2023-02-21T03:45:26;99220.73;;;8.19;98.35
54554;BME280;40450;55.848;-3.572;2023-02-21T03:47:57;99218.98;;;7.33;99.61
54554;BME280;40450;55.848;-3.572;2023-02-21T03:50:27;99223.36;;;7.40;99.62
54554;BME280;40450;55.848;-3.572;2023-02-21T03:52:57;99220.58;;;7.41;99.73
54554;BME280;40450;55.848;-3.572;2023-02-21T03:55:28;99216.15;;;7.68;99.17
54554;BME280;40450;55.848;-3.572;2023-02-21T03:57:58;99215.37;;;7.77;99.15
54554;BME280;40450;55.848;-3.572;2023-02-21T04:00:28;99217.17;;;7.41;99.45
54554;BME280;40450;55.848;-3.572;2023-02-21T04:02:59;99211.54;;;8.01;98.42
54554;BME280;40450;55.848;-3.572;2023-02-21T04:05:29;99213.77;;;7.72;98.37
54554;BME280;40450;55.848;-3.572;2023-02-21T04:08:00;99203.55;;;8.07;98.00
54554;BME280;40450;55.848;-3.572;2023-02-21T04:10:30;99206.19;;;8.18;97.73
54554;BME280;40450;55.848;-3.572;2023-02-21T04:13:00;99203.91;;;7.43;99.22
54554;BME280;40450;55.848;-3.572;2023-02-21T04:15:31;99207.51;;;7.39;99.04
54554;BME280;40450;55.848;-3.572;2023-02-21T04:18:01;99204.55;;;7.30;99.05
54554;BME280;40450;55.848;-3.572;2023-02-21T04:20:31;99205.71;;;7.45;99.00
54554;BME280;40450;55.848;-3.572;2023-02-21T04:23:01;99202.61;;;7.52;98.78
54554;BME280;40450;55.848;-3.572;2023-02-21T04:25:32;99202.11;;;7.04;99.41
54554;BME280;40450;55.848;-3.572;2023-02-21T04:28:02;99200.97;;;7.47;99.00
54554;BME280;40450;55.848;-3.572;2023-02-21T04:30:33;99197.66;;;7.49;98.98
54554;BME280;40450;55.848;-3.572;2023-02-21T04:33:03;99200.16;;;7.22;99.18
54554;BME280;40450;55.848;-3.572;2023-02-21T04:35:33;99195.32;;;7.26;99.42
54554;BME280;40450;55.848;-3.572;2023-02-21T04:38:04;99199.42;;;6.78;100.00
54554;BME280;40450;55.848;-3.572;2023-02-21T04:40:35;99198.52;;;6.91;100.00
54554;BME280;40450;55.848;-3.572;2023-02-21T04:43:05;99198.05;;;7.08;99.69
54554;BME280;40450;55.848;-3.572;2023-02-21T04:45:35;99196.69;;;7.00;99.69
54554;BME280;40450;55.848;-3.572;2023-02-21T04:48:05;99198.23;;;6.33;100.00
54554;BME280;40450;55.848;-3.572;2023-02-21T04:50:36;99191.97;;;7.06;99.86
54554;BME280;40450;55.848;-3.572;2023-02-21T04:53:06;99197.15;;;6.84;99.99
54554;BME280;40450;55.848;-3.572;2023-02-21T04:55:36;99192.22;;;6.66;100.00
54554;BME280;40450;55.848;-3.572;2023-02-21T04:58:07;99193.51;;;7.10;99.69
54554;BME280;40450;55.848;-3.572;2023-02-21T05:00:37;99185.97;;;7.29;98.87
54554;BME280;40450;55.848;-3.572;2023-02-21T05:03:07;99183.15;;;7.73;98.24
54554;BME280;40450;55.848;-3.572;2023-02-21T05:05:38;99192.46;;;7.25;98.88
54554;BME280;40450;55.848;-3.572;2023-02-21T05:08:08;99186.09;;;7.80;98.00
54554;BME280;40450;55.848;-3.572;2023-02-21T05:10:38;99191.32;;;7.31;98.85
54554;BME280;40450;55.848;-3.572;2023-02-21T05:13:09;99190.07;;;7.70;98.02
54554;BME280;40450;55.848;-3.572;2023-02-21T05:15:39;99188.30;;;7.44;98.48
54554;BME280;40450;55.848;-3.572;2023-02-21T05:18:10;99185.16;;;7.13;98.86
54554;BME280;40450;55.848;-3.572;2023-02-21T05:20:40;99184.60;;;7.39;98.79
54554;BME280;40450;55.848;-3.572;2023-02-21T05:23:10;99177.85;;;7.58;98.35
54554;BME280;40450;55.848;-3.572;2023-02-21T05:25:41;99175.36;;;7.67;98.13
54554;BME280;40450;55.848;-3.572;2023-02-21T05:28:11;99180.29;;;7.11;98.94
54554;BME280;40450;55.848;-3.572;2023-02-21T05:30:41;99175.44;;;7.63;97.90
54554;BME280;40450;55.848;-3.572;2023-02-21T05:33:12;99178.71;;;7.65;98.05
54554;BME280;40450;55.848;-3.572;2023-02-21T05:35:42;99177.31;;;8.02;97.54
54554;BME280;40450;55.848;-3.572;2023-02-21T05:38:13;99175.99;;;7.97;97.43
54554;BME280;40450;55.848;-3.572;2023-02-21T05:40:43;99177.85;;;8.31;96.55
54554;BME280;40450;55.848;-3.572;2023-02-21T05:43:14;99175.87;;;8.40;96.34
54554;BME280;40450;55.848;-3.572;2023-02-21T05:45:44;99180.31;;;7.67;97.60
54554;BME280;40450;55.848;-3.572;2023-02-21T05:48:14;99176.25;;;8.16;96.97
54554;BME280;40450;55.848;-3.572;2023-02-21T05:50:44;99172.11;;;8.26;96.60
54554;BME280;40450;55.848;-3.572;2023-02-21T05:53:14;99170.26;;;8.11;96.35
54554;BME280;40450;55.848;-3.572;2023-02-21T05:55:45;99169.91;;;8.23;96.08
54554;BME280;40450;55.848;-3.572;2023-02-21T05:58:15;99165.09;;;8.20;96.34
54554;BME280;40450;55.848;-3.572;2023-02-21T06:00:51;99168.00;;;8.12;96.62
54554;BME280;40450;55.848;-3.572;2023-02-21T06:03:16;99166.67;;;7.57;97.68
54554;BME280;40450;55.848;-3.572;2023-02-21T06:05:46;99168.18;;;6.96;98.70
54554;BME280;40450;55.848;-3.572;2023-02-21T06:08:17;99166.87;;;7.14;98.84
54554;BME280;40450;55.848;-3.572;2023-02-21T06:10:47;99157.05;;;7.35;98.39
54554;BME280;40450;55.848;-3.572;2023-02-21T06:13:17;99159.03;;;7.56;98.13
54554;BME280;40450;55.848;-3.572;2023-02-21T06:15:48;99159.13;;;7.43;97.93
54554;BME280;40450;55.848;-3.572;2023-02-21T06:18:18;99165.58;;;6.77;99.24
54554;BME280;40450;55.848;-3.572;2023-02-21T06:20:49;99164.77;;;7.03;98.81
54554;BME280;40450;55.848;-3.572;2023-02-21T06:23:19;99162.45;;;6.92;99.17
54554;BME280;40450;55.848;-3.572;2023-02-21T06:25:49;99162.52;;;6.46;99.87
54554;BME280;40450;55.848;-3.572;2023-02-21T06:28:20;99164.10;;;6.69;99.53
54554;BME280;40450;55.848;-3.572;2023-02-21T06:30:50;99163.69;;;7.32;98.49
54554;BME280;40450;55.848;-3.572;2023-02-21T06:33:20;99162.84;;;7.27;98.52
54554;BME280;40450;55.848;-3.572;2023-02-21T06:35:51;99166.31;;;7.15;98.62
54554;BME280;40450;55.848;-3.572;2023-02-21T06:38:21;99166.63;;;7.48;98.03
54554;BME280;40450;55.848;-3.572;2023-02-21T06:40:52;99162.06;;;8.33;96.96
54554;BME280;40450;55.848;-3.572;2023-02-21T06:43:22;99159.46;;;8.42;96.15
54554;BME280;40450;55.848;-3.572;2023-02-21T06:45:52;99160.23;;;8.37;96.17
54554;BME280;40450;55.848;-3.572;2023-02-21T06:48:23;99163.37;;;8.33;96.23
54554;BME280;40450;55.848;-3.572;2023-02-21T06:50:53;99165.09;;;8.07;96.62
54554;BME280;40450;55.848;-3.572;2023-02-21T06:53:24;99164.00;;;8.56;96.09
54554;BME280;40450;55.848;-3.572;2023-02-21T06:55:53;99161.45;;;8.60;95.60
54554;BME280;40450;55.848;-3.572;2023-02-21T06:58:25;99164.46;;;8.23;95.98
54554;BME280;40450;55.848;-3.572;2023-02-21T07:00:54;99163.46;;;8.03;96.42
54554;BME280;40450;55.848;-3.572;2023-02-21T07:03:25;99160.93;;;7.92;96.60
54554;BME280;40450;55.848;-3.572;2023-02-21T07:05:55;99161.25;;;7.75;97.03
54554;BME280;40450;55.848;-3.572;2023-02-21T07:08:25;99165.06;;;7.08;98.23
54554;BME280;40450;55.848;-3.572;2023-02-21T07:10:56;99163.07;;;7.35;98.12
54554;BME280;40450;55.848;-3.572;2023-02-21T07:13:26;99164.70;;;7.15;98.46
54554;BME280;40450;55.848;-3.572;2023-02-21T07:15:56;99159.94;;;7.34;98.26
54554;BME280;40450;55.848;-3.572;2023-02-21T07:18:27;99159.87;;;7.34;98.19
54554;BME280;40450;55.848;-3.572;2023-02-21T07:20:57;99154.85;;;7.76;97.28
54554;BME280;40450;55.848;-3.572;2023-02-21T07:23:28;99157.49;;;7.38;97.90
54554;BME280;40450;55.848;-3.572;2023-02-21T07:25:59;99153.00;;;7.69;97.76
54554;BME280;40450;55.848;-3.572;2023-02-21T07:28:29;99152.58;;;7.61;97.82
54554;BME280;40450;55.848;-3.572;2023-02-21T07:31:00;99155.12;;;7.92;96.86
54554;BME280;40450;55.848;-3.572;2023-02-21T07:33:29;99153.84;;;8.31;96.07
54554;BME280;40450;55.848;-3.572;2023-02-21T07:36:00;99153.10;;;7.92;96.26
54554;BME280;40450;55.848;-3.572;2023-02-21T07:38:31;99157.90;;;8.17;96.00
54554;BME280;40450;55.848;-3.572;2023-02-21T07:41:03;99155.88;;;8.66;95.12
54554;BME280;40450;55.848;-3.572;2023-02-21T07:43:32;99154.29;;;8.97;93.92
54554;BME280;40450;55.848;-3.572;2023-02-21T07:46:01;99155.44;;;9.54;92.54
54554;BME280;40450;55.848;-3.572;2023-02-21T07:48:32;99159.00;;;9.10;93.04
54554;BME280;40450;55.848;-3.572;2023-02-21T07:51:03;99159.24;;;9.50;92.40
54554;BME280;40450;55.848;-3.572;2023-02-21T07:53:32;99159.50;;;9.01;94.01
54554;BME280;40450;55.848;-3.572;2023-02-21T07:56:03;99164.36;;;8.68;94.41
54554;BME280;40450;55.848;-3.572;2023-02-21T07:58:34;99166.78;;;8.69;94.41
54554;BME280;40450;55.848;-3.572;2023-02-21T08:01:03;99166.08;;;8.08;95.71
54554;BME280;40450;55.848;-3.572;2023-02-21T08:03:33;99169.52;;;7.48;97.37
54554;BME280;40450;55.848;-3.572;2023-02-21T08:06:04;99168.66;;;7.94;96.68
54554;BME280;40450;55.848;-3.572;2023-02-21T08:08:34;99169.56;;;7.47;97.48
54554;BME280;40450;55.848;-3.572;2023-02-21T08:11:06;99178.04;;;7.35;97.92
54554;BME280;40450;55.848;-3.572;2023-02-21T08:13:36;99173.68;;;6.01;100.00
54554;BME280;40450;55.848;-3.572;2023-02-21T08:16:06;99172.49;;;5.84;100.00
54554;BME280;40450;55.848;-3.572;2023-02-21T08:18:36;99173.82;;;6.72;99.56
54554;BME280;40450;55.848;-3.572;2023-02-21T08:21:09;99173.27;;;6.47;99.54
54554;BME280;40450;55.848;-3.572;2023-02-21T08:23:36;99177.22;;;6.66;99.50
54554;BME280;40450;55.848;-3.572;2023-02-21T08:26:06;99179.28;;;6.21;100.00
54554;BME280;40450;55.848;-3.572;2023-02-21T08:28:37;99178.18;;;6.21;100.00
54554;BME280;40450;55.848;-3.572;2023-02-21T08:31:08;99180.09;;;6.89;99.42
54554;BME280;40450;55.848;-3.572;2023-02-21T08:33:39;99179.90;;;6.65;99.58
54554;BME280;40450;55.848;-3.572;2023-02-21T08:36:09;99175.40;;;7.17;98.75
54554;BME280;40450;55.848;-3.572;2023-02-21T08:38:39;99168.49;;;7.79;97.73
54554;BME280;40450;55.848;-3.572;2023-02-21T08:41:08;99171.90;;;6.12;99.61
54554;BME280;40450;55.848;-3.572;2023-02-21T08:43:39;99172.59;;;6.61;99.40
54554;BME280;40450;55.848;-3.572;2023-02-21T08:46:09;99171.10;;;6.61;99.13
54554;BME280;40450;55.848;-3.572;2023-02-21T08:48:39;99173.31;;;6.76;98.62
54554;BME280;40450;55.848;-3.572;2023-02-21T08:51:10;99173.93;;;6.67;98.91
54554;BME280;40450;55.848;-3.572;2023-02-21T08:53:40;99173.01;;;6.08;99.68
54554;BME280;40450;55.848;-3.572;2023-02-21T08:56:11;99169.59;;;5.69;99.80
54554;BME280;40450;55.848;-3.572;2023-02-21T08:58:41;99168.66;;;5.71;100.00
54554;BME280;40450;55.848;-3.572;2023-02-21T09:01:12;99166.67;;;6.34;99.64
54554;BME280;40450;55.848;-3.572;2023-02-21T09:03:42;99169.55;;;6.50;99.04
54554;BME280;40450;55.848;-3.572;2023-02-21T09:06:12;99169.96;;;6.07;99.37
54554;BME280;40450;55.848;-3.572;2023-02-21T09:08:42;99166.28;;;6.14;99.12
54554;BME280;40450;55.848;-3.572;2023-02-21T09:11:13;99161.25;;;6.58;98.95
54554;BME280;40450;55.848;-3.572;2023-02-21T09:13:43;99159.87;;;6.80;98.40
54554;BME280;40450;55.848;-3.572;2023-02-21T09:16:14;99161.02;;;6.57;98.45
54554;BME280;40450;55.848;-3.572;2023-02-21T09:18:53;99159.27;;;6.52;98.60
54554;BME280;40450;55.848;-3.572;2023-02-21T09:21:14;99157.44;;;6.51;98.39
54554;BME280;40450;55.848;-3.572;2023-02-21T09:23:44;99154.76;;;6.65;98.28
54554;BME280;40450;55.848;-3.572;2023-02-21T09:26:15;99148.62;;;6.35;98.57
54554;BME280;40450;55.848;-3.572;2023-02-21T09:28:45;99143.37;;;6.28;98.76
54554;BME280;40450;55.848;-3.572;2023-02-21T09:31:15;99138.78;;;6.04;98.66
54554;BME280;40450;55.848;-3.572;2023-02-21T09:33:46;99140.33;;;6.98;97.61
54554;BME280;40450;55.848;-3.572;2023-02-21T09:36:17;99135.91;;;7.00;97.38
54554;BME280;40450;55.848;-3.572;2023-02-21T09:38:47;99131.59;;;7.17;97.01
54554;BME280;40450;55.848;-3.572;2023-02-21T09:41:17;99129.27;;;6.62;97.98
54554;BME280;40450;55.848;-3.572;2023-02-21T09:43:49;99128.86;;;6.14;98.97
54554;BME280;40450;55.848;-3.572;2023-02-21T09:46:23;99127.77;;;6.58;98.41
54554;BME280;40450;55.848;-3.572;2023-02-21T09:48:48;99117.97;;;6.50;98.19
54554;BME280;40450;55.848;-3.572;2023-02-21T09:51:18;99117.27;;;6.71;97.72
54554;BME280;40450;55.848;-3.572;2023-02-21T09:53:49;99113.78;;;6.86;97.51
54554;BME280;40450;55.848;-3.572;2023-02-21T09:56:24;99110.83;;;7.14;97.14
54554;BME280;40450;55.848;-3.572;2023-02-21T09:58:49;99107.71;;;7.30;96.51
54554;BME280;40450;55.848;-3.572;2023-02-21T10:01:28;99111.03;;;6.71;96.83
54554;BME280;40450;55.848;-3.572;2023-02-21T10:03:54;99109.36;;;6.85;96.93
54554;BME280;40450;55.848;-3.572;2023-02-21T10:06:30;99112.88;;;6.26;98.18
54554;BME280;40450;55.848;-3.572;2023-02-21T10:08:55;99112.63;;;6.52;98.19
54554;BME280;40450;55.848;-3.572;2023-02-21T10:11:29;99113.17;;;7.07;97.23
54554;BME280;40450;55.848;-3.572;2023-02-21T10:13:55;99120.20;;;6.37;98.29
54554;BME280;40450;55.848;-3.572;2023-02-21T10:16:27;99123.07;;;6.63;97.92
54554;BME280;40450;55.848;-3.572;2023-02-21T10:19:01;99115.88;;;7.52;96.56
54554;BME280;40450;55.848;-3.572;2023-02-21T10:21:26;99115.89;;;7.63;96.19
54554;BME280;40450;55.848;-3.572;2023-02-21T10:23:55;99117.09;;;7.55;95.76
54554;BME280;40450;55.848;-3.572;2023-02-21T10:26:26;99115.27;;;8.32;94.57
54554;BME280;40450;55.848;-3.572;2023-02-21T10:28:55;99113.90;;;8.15;94.55
54554;BME280;40450;55.848;-3.572;2023-02-21T10:31:30;99114.38;;;8.32;94.11
54554;BME280;40450;55.848;-3.572;2023-02-21T10:33:55;99111.72;;;8.01;94.71
54554;BME280;40450;55.848;-3.572;2023-02-21T10:36:26;99113.16;;;7.51;95.87
54554;BME280;40450;55.848;-3.572;2023-02-21T10:38:58;99112.83;;;7.54;95.97
54554;BME280;40450;55.848;-3.572;2023-02-21T10:41:29;99111.62;;;8.17;94.90
54554;BME280;40450;55.848;-3.572;2023-02-21T10:44:00;99108.79;;;8.50;93.77
54554;BME280;40450;55.848;-3.572;2023-02-21T10:46:29;99106.20;;;9.01;92.77
54554;BME280;40450;55.848;-3.572;2023-02-21T10:51:32;99101.86;;;7.99;94.48
54554;BME280;40450;55.848;-3.572;2023-02-21T10:56:29;99089.18;;;8.26;94.10
54554;BME280;40450;55.848;-3.572;2023-02-21T10:59:01;99091.75;;;8.05;94.63
54554;BME280;40450;55.848;-3.572;2023-02-21T11:01:35;99087.54;;;8.41;94.71
54554;BME280;40450;55.848;-3.572;2023-02-21T11:04:02;99088.36;;;8.58;93.18
54554;BME280;40450;55.848;-3.572;2023-02-21T11:06:33;99088.89;;;8.49;93.01
54554;BME280;40450;55.848;-3.572;2023-02-21T11:09:01;99091.51;;;8.47;93.15
54554;BME280;40450;55.848;-3.572;2023-02-21T11:11:33;99092.50;;;7.42;95.21
54554;BME280;40450;55.848;-3.572;2023-02-21T11:14:19;99090.31;;;7.29;96.01
54554;BME280;40450;55.848;-3.572;2023-02-21T11:16:31;99086.70;;;8.11;94.93
54554;BME280;40450;55.848;-3.572;2023-02-21T11:19:04;99084.09;;;7.69;94.76
54554;BME280;40450;55.848;-3.572;2023-02-21T11:21:32;99081.18;;;7.45;95.19
54554;BME280;40450;55.848;-3.572;2023-02-21T11:24:06;99089.05;;;6.93;95.59
54554;BME280;40450;55.848;-3.572;2023-02-21T11:26:36;99080.28;;;7.34;95.18
54554;BME280;40450;55.848;-3.572;2023-02-21T11:29:09;99077.71;;;7.82;94.70
54554;BME280;40450;55.848;-3.572;2023-02-21T11:31:33;99077.27;;;8.24;93.66
54554;BME280;40450;55.848;-3.572;2023-02-21T11:34:06;99073.19;;;8.26;93.76
54554;BME280;40450;55.848;-3.572;2023-02-21T11:36:36;99069.18;;;8.85;92.02
54554;BME280;40450;55.848;-3.572;2023-02-21T11:39:06;99067.66;;;7.81;91.39
54554;BME280;40450;55.848;-3.572;2023-02-21T11:41:37;99061.90;;;7.67;92.86
54554;BME280;40450;55.848;-3.572;2023-02-21T11:46:39;99055.06;;;8.63;91.68
54554;BME280;40450;55.848;-3.572;2023-02-21T11:49:16;99053.14;;;8.18;92.79
54554;BME280;40450;55.848;-3.572;2023-02-21T11:51:42;99047.69;;;7.97;93.06
54554;BME280;40450;55.848;-3.572;2023-02-21T11:54:07;99043.26;;;7.52;93.05
54554;BME280;40450;55.848;-3.572;2023-02-21T11:56:43;99039.14;;;6.93;93.94
54554;BME280;40450;55.848;-3.572;2023-02-21T11:59:17;99040.05;;;7.36;93.82
54554;BME280;40450;55.848;-3.572;2023-02-21T12:01:44;99038.72;;;6.87;94.24
54554;BME280;40450;55.848;-3.572;2023-02-21T12:04:18;99033.84;;;7.22;93.72
54554;BME280;40450;55.848;-3.572;2023-02-21T12:06:43;99025.86;;;7.25;93.01
54554;BME280;40450;55.848;-3.572;2023-02-21T12:09:12;99027.52;;;7.37;92.63
54554;BME280;40450;55.848;-3.572;2023-02-21T12:11:49;99025.91;;;7.40;91.91
54554;BME280;40450;55.848;-3.572;2023-02-21T12:14:18;99022.53;;;7.46;91.94
54554;BME280;40450;55.848;-3.572;2023-02-21T12:16:49;99022.01;;;7.92;91.67
54554;BME280;40450;55.848;-3.572;2023-02-21T12:19:22;99019.28;;;8.43;90.45
54554;BME280;40450;55.848;-3.572;2023-02-21T12:21:52;99021.19;;;8.87;89.26
54554;BME280;40450;55.848;-3.572;2023-02-21T12:24:23;99011.07;;;9.17;88.55
54554;BME280;40450;55.848;-3.572;2023-02-21T12:26:48;99010.00;;;8.10;89.78
54554;BME280;40450;55.848;-3.572;2023-02-21T12:29:24;99003.22;;;7.53;90.94
54554;BME280;40450;55.848;-3.572;2023-02-21T12:31:52;99006.48;;;7.73;90.96
54554;BME280;40450;55.848;-3.572;2023-02-21T12:34:24;99005.53;;;7.70;90.97
54554;BME280;40450;55.848;-3.572;2023-02-21T12:36:53;98998.11;;;7.51;91.01
54554;BME280;40450;55.848;-3.572;2023-02-21T12:39:22;98999.67;;;8.00;90.78
54554;BME280;40450;55.848;-3.572;2023-02-21T12:41:54;99000.86;;;7.79;90.25
54554;BME280;40450;55.848;-3.572;2023-02-21T12:44:16;99000.96;;;8.33;88.82
54554;BME280;40450;55.848;-3.572;2023-02-21T12:46:50;98999.45;;;7.76;89.89
54554;BME280;40450;55.848;-3.572;2023-02-21T12:49:18;98991.87;;;7.49;90.88
54554;BME280;40450;55.848;-3.572;2023-02-21T12:51:47;98990.91;;;7.44;91.17
54554;BME280;40450;55.848;-3.572;2023-02-21T12:54:19;98980.96;;;8.53;89.91
54554;BME280;40450;55.848;-3.572;2023-02-21T12:56:48;98981.34;;;8.02;88.85
54554;BME280;40450;55.848;-3.572;2023-02-21T12:59:20;98976.20;;;8.53;88.45
54554;BME280;40450;55.848;-3.572;2023-02-21T13:01:49;98971.74;;;8.37;88.32
54554;BME280;40450;55.848;-3.572;2023-02-21T13:04:23;98964.05;;;8.05;90.09
54554;BME280;40450;55.848;-3.572;2023-02-21T13:06:50;98963.82;;;7.53;91.13
54554;BME280;40450;55.848;-3.572;2023-02-21T13:09:24;98966.10;;;7.62;91.43
54554;BME280;40450;55.848;-3.572;2023-02-21T13:11:53;98966.56;;;8.41;90.03
54554;BME280;40450;55.848;-3.572;2023-02-21T13:14:22;98966.82;;;8.45;89.71
54554;BME280;40450;55.848;-3.572;2023-02-21T13:16:52;98959.08;;;8.50;89.63
54554;BME280;40450;55.848;-3.572;2023-02-21T13:19:18;98944.85;;;8.94;88.59
54554;BME280;40450;55.848;-3.572;2023-02-21T13:22:01;98939.27;;;8.52;89.46
54554;BME280;40450;55.848;-3.572;2023-02-21T13:26:57;98929.86;;;8.67;89.35
54554;BME280;40450;55.848;-3.572;2023-02-21T13:29:23;98926.49;;;8.59;88.82
54554;BME280;40450;55.848;-3.572;2023-02-21T13:31:58;98930.66;;;8.37;89.70
54554;BME280;40450;55.848;-3.572;2023-02-21T13:34:22;98927.24;;;7.67;91.57
54554;BME280;40450;55.848;-3.572;2023-02-21T13:36:51;98928.49;;;8.21;90.95